sensor_id;sensor_type;location;lat;lon;timestamp;P1;durP1;ratioP1;P2;durP2;ratioP2
52136;SDS011;69622;49.570;10.986;2024-02-21T00:00:18;2.35;;;1.75;;
52136;SDS011;69622;49.570;10.986;2024-02-21T00:03:21;7.20;;;2.38;;
52136;SDS011;69622;49.570;10.986;2024-02-21T00:06:22;9.23;;;2.00;;
52136;SDS011;69622;49.570;10.986;2024-02-21T00:09:24;7.95;;;2.38;;
52136;SDS011;69622;49.570;10.986;2024-02-21T00:12:25;4.80;;;2.63;;
52136;SDS011;69622;49.570;10.986;2024-02-21T00:15:27;6.15;;;1.75;;
52136;SDS011;69622;49.570;10.986;2024-02-21T00:18:28;5.75;;;2.13;;
52136;SDS011;69622;49.570;10.986;2024-02-21T00:21:31;6.78;;;2.30;;
52136;SDS011;69622;49.570;10.986;2024-02-21T00:24:32;7.57;;;2.67;;
52136;SDS011;69622;49.570;10.986;2024-02-21T00:27:33;5.95;;;2.05;;
52136;SDS011;69622;49.570;10.986;2024-02-21T00:30:35;5.80;;;2.45;;
52136;SDS011;69622;49.570;10.986;2024-02-21T00:33:39;7.65;;;2.22;;
52136;SDS011;69622;49.570;10.986;2024-02-21T00:36:40;10.15;;;2.42;;
52136;SDS011;69622;49.570;10.986;2024-02-21T00:39:42;6.18;;;2.75;;
52136;SDS011;69622;49.570;10.986;2024-02-21T00:42:44;7.63;;;2.45;;
52136;SDS011;69622;49.570;10.986;2024-02-21T00:45:45;12.55;;;2.95;;
52136;SDS011;69622;49.570;10.986;2024-02-21T00:48:47;6.40;;;2.08;;
52136;SDS011;69622;49.570;10.986;2024-02-21T00:51:48;7.05;;;1.88;;
52136;SDS011;69622;49.570;10.986;2024-02-21T00:54:50;3.88;;;2.25;;
52136;SDS011;69622;49.570;10.986;2024-02-21T01:00:56;3.85;;;1.80;;
52136;SDS011;69622;49.570;10.986;2024-02-21T01:03:58;5.07;;;2.28;;
52136;SDS011;69622;49.570;10.986;2024-02-21T01:06:59;8.02;;;1.92;;
52136;SDS011;69622;49.570;10.986;2024-02-21T01:10:01;5.18;;;1.92;;
52136;SDS011;69622;49.570;10.986;2024-02-21T01:13:02;9.18;;;2.25;;
52136;SDS011;69622;49.570;10.986;2024-02-21T01:16:04;4.85;;;3.55;;
52136;SDS011;69622;49.570;10.986;2024-02-21T01:19:08;3.58;;;1.70;;
52136;SDS011;69622;49.570;10.986;2024-02-21T01:22:09;5.78;;;2.30;;
52136;SDS011;69622;49.570;10.986;2024-02-21T01:25:11;6.63;;;1.98;;
52136;SDS011;69622;49.570;10.986;2024-02-21T01:28:13;4.85;;;2.55;;
52136;SDS011;69622;49.570;10.986;2024-02-21T01:31:14;11.60;;;2.83;;
52136;SDS011;69622;49.570;10.986;2024-02-21T01:34:16;11.02;;;3.92;;
52136;SDS011;69622;49.570;10.986;2024-02-21T01:37:18;7.65;;;2.45;;
52136;SDS011;69622;49.570;10.986;2024-02-21T01:40:19;7.35;;;1.92;;
52136;SDS011;69622;49.570;10.986;2024-02-21T01:43:21;5.55;;;1.67;;
52136;SDS011;69622;49.570;10.986;2024-02-21T01:46:23;4.28;;;2.38;;
52136;SDS011;69622;49.570;10.986;2024-02-21T01:49:29;11.52;;;2.13;;
52136;SDS011;69622;49.570;10.986;2024-02-21T01:52:31;8.32;;;1.92;;
52136;SDS011;69622;49.570;10.986;2024-02-21T01:55:33;4.40;;;2.20;;
52136;SDS011;69622;49.570;10.986;2024-02-21T01:58:36;10.10;;;2.58;;
52136;SDS011;69622;49.570;10.986;2024-02-21T02:01:39;5.28;;;2.00;;
52136;SDS011;69622;49.570;10.986;2024-02-21T02:04:41;2.90;;;1.77;;
52136;SDS011;69622;49.570;10.986;2024-02-21T02:07:43;11.93;;;3.70;;
52136;SDS011;69622;49.570;10.986;2024-02-21T02:10:45;7.50;;;2.42;;
52136;SDS011;69622;49.570;10.986;2024-02-21T02:13:47;4.95;;;2.75;;
52136;SDS011;69622;49.570;10.986;2024-02-21T02:16:49;4.55;;;2.10;;
52136;SDS011;69622;49.570;10.986;2024-02-21T02:19:50;6.32;;;1.80;;
52136;SDS011;69622;49.570;10.986;2024-02-21T02:22:52;3.70;;;2.08;;
52136;SDS011;69622;49.570;10.986;2024-02-21T02:25:53;6.80;;;1.80;;
52136;SDS011;69622;49.570;10.986;2024-02-21T02:28:55;6.50;;;2.22;;
52136;SDS011;69622;49.570;10.986;2024-02-21T02:31:57;5.00;;;1.55;;
52136;SDS011;69622;49.570;10.986;2024-02-21T02:34:58;5.82;;;2.40;;
52136;SDS011;69622;49.570;10.986;2024-02-21T02:38:00;5.18;;;1.83;;
52136;SDS011;69622;49.570;10.986;2024-02-21T02:41:01;5.30;;;1.83;;
52136;SDS011;69622;49.570;10.986;2024-02-21T02:44:03;3.85;;;2.10;;
52136;SDS011;69622;49.570;10.986;2024-02-21T02:47:05;6.78;;;2.33;;
52136;SDS011;69622;49.570;10.986;2024-02-21T02:50:06;6.95;;;2.13;;
52136;SDS011;69622;49.570;10.986;2024-02-21T02:53:09;6.90;;;1.88;;
52136;SDS011;69622;49.570;10.986;2024-02-21T02:56:16;4.90;;;1.80;;
52136;SDS011;69622;49.570;10.986;2024-02-21T02:59:17;5.30;;;1.95;;
52136;SDS011;69622;49.570;10.986;2024-02-21T03:02:19;6.40;;;2.33;;
52136;SDS011;69622;49.570;10.986;2024-02-21T03:05:20;5.30;;;1.83;;
52136;SDS011;69622;49.570;10.986;2024-02-21T03:08:23;3.03;;;2.08;;
52136;SDS011;69622;49.570;10.986;2024-02-21T03:11:24;5.40;;;1.70;;
52136;SDS011;69622;49.570;10.986;2024-02-21T03:14:31;3.80;;;2.05;;
52136;SDS011;69622;49.570;10.986;2024-02-21T03:17:32;5.05;;;2.10;;
52136;SDS011;69622;49.570;10.986;2024-02-21T03:20:37;6.63;;;3.15;;
52136;SDS011;69622;49.570;10.986;2024-02-21T03:23:39;12.27;;;2.88;;
52136;SDS011;69622;49.570;10.986;2024-02-21T03:26:40;5.05;;;2.25;;
52136;SDS011;69622;49.570;10.986;2024-02-21T03:29:42;7.57;;;2.53;;
52136;SDS011;69622;49.570;10.986;2024-02-21T03:32:43;6.95;;;2.22;;
52136;SDS011;69622;49.570;10.986;2024-02-21T03:35:44;5.25;;;2.03;;
52136;SDS011;69622;49.570;10.986;2024-02-21T03:38:46;3.33;;;1.70;;
52136;SDS011;69622;49.570;10.986;2024-02-21T03:41:48;7.03;;;2.03;;
52136;SDS011;69622;49.570;10.986;2024-02-21T03:44:50;5.45;;;1.42;;
52136;SDS011;69622;49.570;10.986;2024-02-21T03:47:51;6.75;;;2.42;;
52136;SDS011;69622;49.570;10.986;2024-02-21T03:50:53;4.05;;;2.45;;
52136;SDS011;69622;49.570;10.986;2024-02-21T03:53:54;5.38;;;2.00;;
52136;SDS011;69622;49.570;10.986;2024-02-21T03:56:56;7.57;;;2.15;;
52136;SDS011;69622;49.570;10.986;2024-02-21T03:59:57;3.28;;;1.70;;
52136;SDS011;69622;49.570;10.986;2024-02-21T04:02:59;7.63;;;2.35;;
52136;SDS011;69622;49.570;10.986;2024-02-21T04:06:00;8.27;;;2.95;;
52136;SDS011;69622;49.570;10.986;2024-02-21T04:09:02;5.75;;;2.05;;
52136;SDS011;69622;49.570;10.986;2024-02-21T04:12:03;4.50;;;2.00;;
52136;SDS011;69622;49.570;10.986;2024-02-21T04:15:05;4.72;;;1.98;;
52136;SDS011;69622;49.570;10.986;2024-02-21T04:18:07;5.82;;;2.60;;
52136;SDS011;69622;49.570;10.986;2024-02-21T04:21:09;4.00;;;2.25;;
52136;SDS011;69622;49.570;10.986;2024-02-21T04:24:13;6.65;;;2.03;;
52136;SDS011;69622;49.570;10.986;2024-02-21T04:27:14;11.40;;;2.35;;
52136;SDS011;69622;49.570;10.986;2024-02-21T04:30:16;5.53;;;2.10;;
52136;SDS011;69622;49.570;10.986;2024-02-21T04:33:17;5.88;;;2.15;;
52136;SDS011;69622;49.570;10.986;2024-02-21T04:36:18;3.20;;;2.17;;
52136;SDS011;69622;49.570;10.986;2024-02-21T04:39:20;10.40;;;2.75;;
52136;SDS011;69622;49.570;10.986;2024-02-21T04:42:21;7.97;;;2.65;;
52136;SDS011;69622;49.570;10.986;2024-02-21T04:45:23;6.03;;;2.33;;
52136;SDS011;69622;49.570;10.986;2024-02-21T04:48:24;10.48;;;2.90;;
52136;SDS011;69622;49.570;10.986;2024-02-21T04:51:26;10.85;;;2.65;;
52136;SDS011;69622;49.570;10.986;2024-02-21T04:54:27;5.10;;;2.45;;
52136;SDS011;69622;49.570;10.986;2024-02-21T04:57:29;5.85;;;2.85;;
52136;SDS011;69622;49.570;10.986;2024-02-21T05:00:30;6.35;;;3.17;;
52136;SDS011;69622;49.570;10.986;2024-02-21T05:03:32;6.85;;;2.50;;
52136;SDS011;69622;49.570;10.986;2024-02-21T05:06:37;8.60;;;2.53;;
52136;SDS011;69622;49.570;10.986;2024-02-21T05:09:40;9.88;;;3.35;;
52136;SDS011;69622;49.570;10.986;2024-02-21T05:12:43;5.95;;;2.58;;
52136;SDS011;69622;49.570;10.986;2024-02-21T05:15:45;6.68;;;2.92;;
52136;SDS011;69622;49.570;10.986;2024-02-21T05:18:46;7.00;;;2.53;;
52136;SDS011;69622;49.570;10.986;2024-02-21T05:21:48;8.02;;;2.85;;
52136;SDS011;69622;49.570;10.986;2024-02-21T05:24:49;4.65;;;2.60;;
52136;SDS011;69622;49.570;10.986;2024-02-21T05:27:51;8.52;;;3.35;;
52136;SDS011;69622;49.570;10.986;2024-02-21T05:30:54;5.30;;;2.90;;
52136;SDS011;69622;49.570;10.986;2024-02-21T05:33:55;6.97;;;2.10;;
52136;SDS011;69622;49.570;10.986;2024-02-21T05:36:59;5.88;;;2.58;;
52136;SDS011;69622;49.570;10.986;2024-02-21T05:40:02;4.78;;;2.22;;
52136;SDS011;69622;49.570;10.986;2024-02-21T05:43:03;6.88;;;2.13;;
52136;SDS011;69622;49.570;10.986;2024-02-21T05:46:05;7.65;;;2.55;;
52136;SDS011;69622;49.570;10.986;2024-02-21T05:49:06;3.42;;;1.92;;
52136;SDS011;69622;49.570;10.986;2024-02-21T05:52:08;4.20;;;3.03;;
52136;SDS011;69622;49.570;10.986;2024-02-21T05:55:10;5.28;;;2.78;;
52136;SDS011;69622;49.570;10.986;2024-02-21T05:58:11;6.60;;;2.63;;
52136;SDS011;69622;49.570;10.986;2024-02-21T06:01:14;6.15;;;2.55;;
52136;SDS011;69622;49.570;10.986;2024-02-21T06:04:16;4.38;;;2.13;;
52136;SDS011;69622;49.570;10.986;2024-02-21T06:07:18;6.40;;;2.60;;
52136;SDS011;69622;49.570;10.986;2024-02-21T06:10:19;8.82;;;2.03;;
52136;SDS011;69622;49.570;10.986;2024-02-21T06:13:21;3.28;;;2.10;;
52136;SDS011;69622;49.570;10.986;2024-02-21T06:16:23;3.20;;;1.85;;
52136;SDS011;69622;49.570;10.986;2024-02-21T06:19:24;4.53;;;2.42;;
52136;SDS011;69622;49.570;10.986;2024-02-21T06:22:26;4.80;;;2.40;;
52136;SDS011;69622;49.570;10.986;2024-02-21T06:25:27;6.00;;;2.58;;
52136;SDS011;69622;49.570;10.986;2024-02-21T06:28:29;6.15;;;2.60;;
52136;SDS011;69622;49.570;10.986;2024-02-21T06:31:30;8.10;;;3.28;;
52136;SDS011;69622;49.570;10.986;2024-02-21T06:34:33;8.50;;;2.65;;
52136;SDS011;69622;49.570;10.986;2024-02-21T06:37:37;7.38;;;2.60;;
52136;SDS011;69622;49.570;10.986;2024-02-21T06:40:39;5.22;;;1.92;;
52136;SDS011;69622;49.570;10.986;2024-02-21T06:43:41;5.18;;;2.45;;
52136;SDS011;69622;49.570;10.986;2024-02-21T06:46:43;7.15;;;2.05;;
52136;SDS011;69622;49.570;10.986;2024-02-21T06:49:48;6.75;;;2.30;;
52136;SDS011;69622;49.570;10.986;2024-02-21T06:52:50;8.38;;;2.88;;
52136;SDS011;69622;49.570;10.986;2024-02-21T06:55:51;6.90;;;2.38;;
52136;SDS011;69622;49.570;10.986;2024-02-21T06:58:53;6.80;;;3.13;;
52136;SDS011;69622;49.570;10.986;2024-02-21T07:01:54;4.53;;;2.22;;
52136;SDS011;69622;49.570;10.986;2024-02-21T07:04:57;4.68;;;2.47;;
52136;SDS011;69622;49.570;10.986;2024-02-21T07:07:58;8.27;;;2.90;;
52136;SDS011;69622;49.570;10.986;2024-02-21T07:11:00;9.32;;;2.58;;
52136;SDS011;69622;49.570;10.986;2024-02-21T07:14:02;5.63;;;3.20;;
52136;SDS011;69622;49.570;10.986;2024-02-21T07:17:03;3.47;;;2.13;;
52136;SDS011;69622;49.570;10.986;2024-02-21T07:20:05;5.57;;;2.50;;
52136;SDS011;69622;49.570;10.986;2024-02-21T07:23:08;5.07;;;2.65;;
52136;SDS011;69622;49.570;10.986;2024-02-21T07:26:09;8.75;;;3.17;;
52136;SDS011;69622;49.570;10.986;2024-02-21T07:29:11;9.43;;;2.53;;
52136;SDS011;69622;49.570;10.986;2024-02-21T07:32:13;5.30;;;2.50;;
52136;SDS011;69622;49.570;10.986;2024-02-21T07:35:14;8.00;;;3.05;;
52136;SDS011;69622;49.570;10.986;2024-02-21T07:38:16;10.80;;;2.88;;
52136;SDS011;69622;49.570;10.986;2024-02-21T07:41:19;7.47;;;2.70;;
52136;SDS011;69622;49.570;10.986;2024-02-21T07:44:21;4.75;;;2.25;;
52136;SDS011;69622;49.570;10.986;2024-02-21T07:47:22;7.13;;;2.38;;
52136;SDS011;69622;49.570;10.986;2024-02-21T07:50:24;8.50;;;3.08;;
52136;SDS011;69622;49.570;10.986;2024-02-21T07:53:26;6.13;;;1.98;;
52136;SDS011;69622;49.570;10.986;2024-02-21T07:56:27;4.20;;;2.00;;
52136;SDS011;69622;49.570;10.986;2024-02-21T07:59:30;8.10;;;2.45;;
52136;SDS011;69622;49.570;10.986;2024-02-21T08:02:32;5.68;;;2.30;;
52136;SDS011;69622;49.570;10.986;2024-02-21T08:05:36;5.97;;;2.22;;
52136;SDS011;69622;49.570;10.986;2024-02-21T08:08:37;4.80;;;2.37;;
52136;SDS011;69622;49.570;10.986;2024-02-21T08:11:39;6.55;;;2.40;;
52136;SDS011;69622;49.570;10.986;2024-02-21T08:14:41;4.60;;;2.08;;
52136;SDS011;69622;49.570;10.986;2024-02-21T08:17:42;3.95;;;1.92;;
52136;SDS011;69622;49.570;10.986;2024-02-21T08:20:44;5.53;;;1.90;;
52136;SDS011;69622;49.570;10.986;2024-02-21T08:23:45;5.88;;;2.00;;
52136;SDS011;69622;49.570;10.986;2024-02-21T08:26:47;3.25;;;1.65;;
52136;SDS011;69622;49.570;10.986;2024-02-21T08:29:48;5.70;;;1.60;;
52136;SDS011;69622;49.570;10.986;2024-02-21T08:32:50;7.38;;;3.05;;
52136;SDS011;69622;49.570;10.986;2024-02-21T08:35:51;10.32;;;1.30;;
52136;SDS011;69622;49.570;10.986;2024-02-21T08:38:53;10.75;;;2.03;;
52136;SDS011;69622;49.570;10.986;2024-02-21T08:41:54;4.25;;;1.75;;
52136;SDS011;69622;49.570;10.986;2024-02-21T08:44:58;6.28;;;2.35;;
52136;SDS011;69622;49.570;10.986;2024-02-21T08:47:59;5.25;;;1.98;;
52136;SDS011;69622;49.570;10.986;2024-02-21T08:51:01;5.97;;;2.42;;
52136;SDS011;69622;49.570;10.986;2024-02-21T08:54:02;3.80;;;2.00;;
52136;SDS011;69622;49.570;10.986;2024-02-21T08:57:04;2.20;;;1.10;;
52136;SDS011;69622;49.570;10.986;2024-02-21T09:00:06;5.43;;;1.80;;
52136;SDS011;69622;49.570;10.986;2024-02-21T09:06:12;4.68;;;1.85;;
52136;SDS011;69622;49.570;10.986;2024-02-21T09:09:15;5.15;;;1.60;;
52136;SDS011;69622;49.570;10.986;2024-02-21T09:12:16;3.67;;;1.30;;
52136;SDS011;69622;49.570;10.986;2024-02-21T09:15:18;3.83;;;1.65;;
52136;SDS011;69622;49.570;10.986;2024-02-21T09:18:19;3.15;;;1.27;;
52136;SDS011;69622;49.570;10.986;2024-02-21T09:21:21;6.88;;;1.20;;
52136;SDS011;69622;49.570;10.986;2024-02-21T09:24:22;7.13;;;1.33;;
52136;SDS011;69622;49.570;10.986;2024-02-21T09:27:24;10.02;;;1.63;;
52136;SDS011;69622;49.570;10.986;2024-02-21T09:30:25;2.60;;;1.17;;
52136;SDS011;69622;49.570;10.986;2024-02-21T09:33:27;3.83;;;1.20;;
52136;SDS011;69622;49.570;10.986;2024-02-21T09:36:33;4.78;;;1.27;;
52136;SDS011;69622;49.570;10.986;2024-02-21T09:39:34;7.55;;;2.20;;
52136;SDS011;69622;49.570;10.986;2024-02-21T09:42:39;5.60;;;1.60;;
52136;SDS011;69622;49.570;10.986;2024-02-21T09:45:42;7.07;;;1.58;;
52136;SDS011;69622;49.570;10.986;2024-02-21T09:51:55;2.92;;;1.58;;
52136;SDS011;69622;49.570;10.986;2024-02-21T09:54:58;2.38;;;1.20;;
52136;SDS011;69622;49.570;10.986;2024-02-21T09:58:01;2.67;;;1.10;;
52136;SDS011;69622;49.570;10.986;2024-02-21T10:01:04;4.47;;;0.95;;
52136;SDS011;69622;49.570;10.986;2024-02-21T10:04:21;4.20;;;1.08;;
52136;SDS011;69622;49.570;10.986;2024-02-21T10:07:23;3.67;;;1.00;;
52136;SDS011;69622;49.570;10.986;2024-02-21T10:10:26;2.70;;;0.90;;
52136;SDS011;69622;49.570;10.986;2024-02-21T10:13:29;2.30;;;1.00;;
52136;SDS011;69622;49.570;10.986;2024-02-21T10:16:31;3.53;;;1.40;;
52136;SDS011;69622;49.570;10.986;2024-02-21T10:19:32;3.15;;;1.27;;
52136;SDS011;69622;49.570;10.986;2024-02-21T10:22:34;4.38;;;0.93;;
52136;SDS011;69622;49.570;10.986;2024-02-21T10:25:37;6.13;;;2.05;;
52136;SDS011;69622;49.570;10.986;2024-02-21T10:28:42;5.72;;;1.77;;
52136;SDS011;69622;49.570;10.986;2024-02-21T10:31:46;5.72;;;1.17;;
52136;SDS011;69622;49.570;10.986;2024-02-21T10:34:47;2.85;;;1.35;;
52136;SDS011;69622;49.570;10.986;2024-02-21T10:37:53;6.32;;;1.55;;
52136;SDS011;69622;49.570;10.986;2024-02-21T10:40:58;2.40;;;1.10;;
52136;SDS011;69622;49.570;10.986;2024-02-21T10:44:00;2.92;;;1.08;;
52136;SDS011;69622;49.570;10.986;2024-02-21T10:50:09;5.13;;;2.42;;
52136;SDS011;69622;49.570;10.986;2024-02-21T10:54:02;2.63;;;0.73;;
52136;SDS011;69622;49.570;10.986;2024-02-21T10:56:45;4.88;;;1.10;;
52136;SDS011;69622;49.570;10.986;2024-02-21T10:59:48;4.30;;;1.20;;
52136;SDS011;69622;49.570;10.986;2024-02-21T11:02:50;2.90;;;1.33;;
52136;SDS011;69622;49.570;10.986;2024-02-21T11:05:51;4.97;;;0.90;;
52136;SDS011;69622;49.570;10.986;2024-02-21T11:09:03;2.38;;;1.20;;
52136;SDS011;69622;49.570;10.986;2024-02-21T11:12:05;3.65;;;1.20;;
52136;SDS011;69622;49.570;10.986;2024-02-21T11:15:08;4.40;;;0.93;;
52136;SDS011;69622;49.570;10.986;2024-02-21T11:18:10;2.83;;;1.02;;
52136;SDS011;69622;49.570;10.986;2024-02-21T11:21:12;4.78;;;2.35;;
52136;SDS011;69622;49.570;10.986;2024-02-21T11:24:13;1.73;;;1.08;;
52136;SDS011;69622;49.570;10.986;2024-02-21T11:27:16;4.25;;;1.50;;
52136;SDS011;69622;49.570;10.986;2024-02-21T11:30:26;2.85;;;0.85;;
52136;SDS011;69622;49.570;10.986;2024-02-21T11:33:28;1.40;;;0.80;;
52136;SDS011;69622;49.570;10.986;2024-02-21T11:36:29;2.50;;;1.25;;
52136;SDS011;69622;49.570;10.986;2024-02-21T11:39:31;1.65;;;1.15;;
52136;SDS011;69622;49.570;10.986;2024-02-21T11:42:33;4.80;;;1.10;;
52136;SDS011;69622;49.570;10.986;2024-02-21T11:45:34;3.13;;;1.20;;
52136;SDS011;69622;49.570;10.986;2024-02-21T11:48:36;7.07;;;1.40;;
52136;SDS011;69622;49.570;10.986;2024-02-21T11:51:38;2.53;;;0.80;;
52136;SDS011;69622;49.570;10.986;2024-02-21T11:54:39;3.28;;;0.90;;
52136;SDS011;69622;49.570;10.986;2024-02-21T11:57:41;1.38;;;1.02;;
52136;SDS011;69622;49.570;10.986;2024-02-21T12:00:45;7.93;;;1.30;;
52136;SDS011;69622;49.570;10.986;2024-02-21T12:03:47;4.07;;;1.10;;
52136;SDS011;69622;49.570;10.986;2024-02-21T12:06:52;3.88;;;1.50;;
52136;SDS011;69622;49.570;10.986;2024-02-21T12:09:54;3.80;;;0.85;;
52136;SDS011;69622;49.570;10.986;2024-02-21T12:13:10;5.45;;;0.70;;
52136;SDS011;69622;49.570;10.986;2024-02-21T12:16:15;2.42;;;1.40;;
52136;SDS011;69622;49.570;10.986;2024-02-21T12:19:17;1.58;;;0.93;;
52136;SDS011;69622;49.570;10.986;2024-02-21T12:22:19;2.72;;;0.55;;
52136;SDS011;69622;49.570;10.986;2024-02-21T12:25:22;4.43;;;1.00;;
52136;SDS011;69622;49.570;10.986;2024-02-21T12:28:24;5.32;;;1.35;;
52136;SDS011;69622;49.570;10.986;2024-02-21T12:31:26;1.20;;;0.57;;
52136;SDS011;69622;49.570;10.986;2024-02-21T12:34:28;2.78;;;1.00;;
52136;SDS011;69622;49.570;10.986;2024-02-21T12:37:48;1.65;;;0.75;;
52136;SDS011;69622;49.570;10.986;2024-02-21T12:40:50;1.08;;;0.60;;
52136;SDS011;69622;49.570;10.986;2024-02-21T12:43:51;3.35;;;0.70;;
52136;SDS011;69622;49.570;10.986;2024-02-21T12:46:53;2.75;;;0.50;;
52136;SDS011;69622;49.570;10.986;2024-02-21T12:49:56;2.08;;;0.80;;
52136;SDS011;69622;49.570;10.986;2024-02-21T12:52:58;2.88;;;0.80;;
52136;SDS011;69622;49.570;10.986;2024-02-21T12:55:59;2.30;;;0.50;;
52136;SDS011;69622;49.570;10.986;2024-02-21T12:59:01;2.58;;;1.15;;
52136;SDS011;69622;49.570;10.986;2024-02-21T13:02:03;2.55;;;1.02;;
52136;SDS011;69622;49.570;10.986;2024-02-21T13:05:05;2.08;;;0.60;;
52136;SDS011;69622;49.570;10.986;2024-02-21T13:08:07;2.72;;;0.70;;
52136;SDS011;69622;49.570;10.986;2024-02-21T13:11:10;3.45;;;0.55;;
52136;SDS011;69622;49.570;10.986;2024-02-21T13:14:12;3.58;;;0.60;;
52136;SDS011;69622;49.570;10.986;2024-02-21T13:17:13;2.55;;;1.10;;
52136;SDS011;69622;49.570;10.986;2024-02-21T13:20:16;4.63;;;0.93;;
52136;SDS011;69622;49.570;10.986;2024-02-21T13:23:18;1.73;;;0.88;;
52136;SDS011;69622;49.570;10.986;2024-02-21T13:26:22;4.00;;;0.95;;
52136;SDS011;69622;49.570;10.986;2024-02-21T13:29:24;3.78;;;1.45;;
52136;SDS011;69622;49.570;10.986;2024-02-21T13:32:25;1.83;;;0.70;;
52136;SDS011;69622;49.570;10.986;2024-02-21T13:35:27;2.08;;;0.63;;
52136;SDS011;69622;49.570;10.986;2024-02-21T13:38:29;0.95;;;0.55;;
52136;SDS011;69622;49.570;10.986;2024-02-21T13:41:30;1.08;;;0.40;;
52136;SDS011;69622;49.570;10.986;2024-02-21T13:44:32;4.32;;;0.63;;
52136;SDS011;69622;49.570;10.986;2024-02-21T13:47:34;2.75;;;1.10;;
52136;SDS011;69622;49.570;10.986;2024-02-21T13:50:37;1.60;;;0.82;;
52136;SDS011;69622;49.570;10.986;2024-02-21T13:53:43;1.42;;;0.57;;
52136;SDS011;69622;49.570;10.986;2024-02-21T13:56:45;1.85;;;0.77;;
52136;SDS011;69622;49.570;10.986;2024-02-21T13:59:46;0.95;;;0.70;;
52136;SDS011;69622;49.570;10.986;2024-02-21T14:02:48;2.88;;;0.63;;
52136;SDS011;69622;49.570;10.986;2024-02-21T14:05:49;1.77;;;0.70;;
52136;SDS011;69622;49.570;10.986;2024-02-21T14:08:51;1.58;;;0.65;;
52136;SDS011;69622;49.570;10.986;2024-02-21T14:11:54;3.60;;;0.80;;
52136;SDS011;69622;49.570;10.986;2024-02-21T14:14:55;4.25;;;1.63;;
52136;SDS011;69622;49.570;10.986;2024-02-21T14:17:59;2.15;;;0.65;;
52136;SDS011;69622;49.570;10.986;2024-02-21T14:21:01;0.85;;;0.35;;
52136;SDS011;69622;49.570;10.986;2024-02-21T14:24:05;1.95;;;0.98;;
52136;SDS011;69622;49.570;10.986;2024-02-21T14:30:10;1.00;;;0.50;;
52136;SDS011;69622;49.570;10.986;2024-02-21T14:33:12;1.92;;;0.70;;
52136;SDS011;69622;49.570;10.986;2024-02-21T14:36:14;0.65;;;0.28;;
52136;SDS011;69622;49.570;10.986;2024-02-21T14:39:19;0.98;;;0.68;;
52136;SDS011;69622;49.570;10.986;2024-02-21T14:42:20;2.92;;;0.73;;
52136;SDS011;69622;49.570;10.986;2024-02-21T14:45:22;1.60;;;0.50;;
52136;SDS011;69622;49.570;10.986;2024-02-21T14:48:24;1.60;;;0.43;;
52136;SDS011;69622;49.570;10.986;2024-02-21T14:51:27;2.00;;;0.98;;
52136;SDS011;69622;49.570;10.986;2024-02-21T14:54:29;1.88;;;0.43;;
52136;SDS011;69622;49.570;10.986;2024-02-21T14:57:30;1.23;;;0.47;;
52136;SDS011;69622;49.570;10.986;2024-02-21T15:00:32;0.70;;;0.43;;
52136;SDS011;69622;49.570;10.986;2024-02-21T15:03:33;1.65;;;0.50;;
52136;SDS011;69622;49.570;10.986;2024-02-21T15:06:35;2.85;;;0.50;;
52136;SDS011;69622;49.570;10.986;2024-02-21T15:09:38;0.85;;;0.40;;
52136;SDS011;69622;49.570;10.986;2024-02-21T15:12:46;2.25;;;0.50;;
52136;SDS011;69622;49.570;10.986;2024-02-21T15:15:47;1.50;;;0.52;;
52136;SDS011;69622;49.570;10.986;2024-02-21T15:18:49;0.95;;;0.30;;
52136;SDS011;69622;49.570;10.986;2024-02-21T15:21:51;1.45;;;0.60;;
52136;SDS011;69622;49.570;10.986;2024-02-21T15:24:52;2.67;;;0.50;;
52136;SDS011;69622;49.570;10.986;2024-02-21T15:27:54;2.33;;;0.60;;
52136;SDS011;69622;49.570;10.986;2024-02-21T15:30:55;2.03;;;0.60;;
52136;SDS011;69622;49.570;10.986;2024-02-21T15:33:57;0.77;;;0.40;;
52136;SDS011;69622;49.570;10.986;2024-02-21T15:36:59;0.80;;;0.57;;
52136;SDS011;69622;49.570;10.986;2024-02-21T15:40:01;3.10;;;0.47;;
52136;SDS011;69622;49.570;10.986;2024-02-21T15:43:06;0.88;;;0.30;;
52136;SDS011;69622;49.570;10.986;2024-02-21T15:46:12;1.35;;;0.77;;
52136;SDS011;69622;49.570;10.986;2024-02-21T15:49:14;1.58;;;0.70;;
52136;SDS011;69622;49.570;10.986;2024-02-21T15:52:15;0.73;;;0.30;;
52136;SDS011;69622;49.570;10.986;2024-02-21T15:55:17;3.72;;;1.33;;
52136;SDS011;69622;49.570;10.986;2024-02-21T15:58:18;0.93;;;0.43;;
52136;SDS011;69622;49.570;10.986;2024-02-21T16:01:21;0.95;;;0.40;;
52136;SDS011;69622;49.570;10.986;2024-02-21T16:04:24;1.17;;;0.60;;
52136;SDS011;69622;49.570;10.986;2024-02-21T16:07:26;1.60;;;0.70;;
52136;SDS011;69622;49.570;10.986;2024-02-21T16:10:28;3.40;;;1.15;;
52136;SDS011;69622;49.570;10.986;2024-02-21T16:13:29;2.92;;;1.02;;
52136;SDS011;69622;49.570;10.986;2024-02-21T16:16:31;1.17;;;0.82;;
52136;SDS011;69622;49.570;10.986;2024-02-21T16:19:33;2.45;;;1.00;;
52136;SDS011;69622;49.570;10.986;2024-02-21T16:22:38;1.15;;;0.60;;
52136;SDS011;69622;49.570;10.986;2024-02-21T16:25:41;3.50;;;0.80;;
52136;SDS011;69622;49.570;10.986;2024-02-21T16:28:45;1.50;;;0.80;;
52136;SDS011;69622;49.570;10.986;2024-02-21T16:31:52;7.22;;;4.40;;
52136;SDS011;69622;49.570;10.986;2024-02-21T16:34:54;2.25;;;0.82;;
52136;SDS011;69622;49.570;10.986;2024-02-21T16:37:58;1.95;;;0.80;;
52136;SDS011;69622;49.570;10.986;2024-02-21T16:40:59;1.33;;;0.85;;
52136;SDS011;69622;49.570;10.986;2024-02-21T16:44:01;1.50;;;0.57;;
52136;SDS011;69622;49.570;10.986;2024-02-21T16:47:06;3.38;;;1.00;;
52136;SDS011;69622;49.570;10.986;2024-02-21T16:50:08;1.48;;;0.80;;
52136;SDS011;69622;49.570;10.986;2024-02-21T16:53:10;5.70;;;0.98;;
52136;SDS011;69622;49.570;10.986;2024-02-21T16:56:11;4.45;;;1.73;;
52136;SDS011;69622;49.570;10.986;2024-02-21T16:59:13;3.13;;;1.08;;
52136;SDS011;69622;49.570;10.986;2024-02-21T17:02:15;2.03;;;1.10;;
52136;SDS011;69622;49.570;10.986;2024-02-21T17:05:16;3.72;;;1.25;;
52136;SDS011;69622;49.570;10.986;2024-02-21T17:08:20;3.50;;;1.20;;
52136;SDS011;69622;49.570;10.986;2024-02-21T17:11:21;4.90;;;1.40;;
52136;SDS011;69622;49.570;10.986;2024-02-21T17:14:23;3.92;;;1.52;;
52136;SDS011;69622;49.570;10.986;2024-02-21T17:17:26;3.00;;;1.13;;
52136;SDS011;69622;49.570;10.986;2024-02-21T17:20:28;4.28;;;1.70;;
52136;SDS011;69622;49.570;10.986;2024-02-21T17:23:29;3.97;;;2.13;;
52136;SDS011;69622;49.570;10.986;2024-02-21T17:26:31;2.00;;;1.30;;
52136;SDS011;69622;49.570;10.986;2024-02-21T17:29:32;3.90;;;1.63;;
52136;SDS011;69622;49.570;10.986;2024-02-21T17:32:34;4.50;;;2.08;;
52136;SDS011;69622;49.570;10.986;2024-02-21T17:35:38;4.38;;;1.83;;
52136;SDS011;69622;49.570;10.986;2024-02-21T17:38:41;6.10;;;2.40;;
52136;SDS011;69622;49.570;10.986;2024-02-21T17:41:44;4.43;;;2.10;;
52136;SDS011;69622;49.570;10.986;2024-02-21T17:44:46;7.65;;;2.22;;
52136;SDS011;69622;49.570;10.986;2024-02-21T17:47:48;4.07;;;1.67;;
52136;SDS011;69622;49.570;10.986;2024-02-21T17:50:52;5.03;;;1.70;;
52136;SDS011;69622;49.570;10.986;2024-02-21T17:53:54;4.07;;;1.52;;
52136;SDS011;69622;49.570;10.986;2024-02-21T17:56:55;3.28;;;1.63;;
52136;SDS011;69622;49.570;10.986;2024-02-21T18:03:03;4.03;;;1.30;;
52136;SDS011;69622;49.570;10.986;2024-02-21T18:06:06;2.92;;;1.58;;
52136;SDS011;69622;49.570;10.986;2024-02-21T18:09:10;4.88;;;2.45;;
52136;SDS011;69622;49.570;10.986;2024-02-21T18:12:11;15.30;;;2.20;;
52136;SDS011;69622;49.570;10.986;2024-02-21T18:15:14;6.05;;;1.95;;
52136;SDS011;69622;49.570;10.986;2024-02-21T18:18:15;4.70;;;1.85;;